Time;durP1;ratioP1;P1;durP2;ratioP2;P2;SDS_P1;SDS_P2;PMS_P1;PMS_P2;Temp;Humidity;BMP_temperature;BMP_pressure;BME280_temperature;BME280_humidity;BME280_pressure;Samples;Min_cycle;Max_cycle;Signal;HPM_P1;HPM_P2
2022/09/10 00:01:26;;;;;;;0.47;0.20;;;;;;;6.12;78.54;100970.81;4991212;28;20484;-69
2022/09/10 00:03:55;;;;;;;0.10;0.10;;;;;;;6.08;78.63;100960.38;5008634;28;20460;-69
2022/09/10 00:06:26;;;;;;;1.05;0.30;;;;;;;6.07;78.93;100966.84;5007866;28;20085;-69
2022/09/10 00:08:53;;;;;;;0.35;0.28;;;;;;;6.10;79.35;100962.88;4988974;28;20042;-69
2022/09/10 00:11:19;;;;;;;1.60;0.47;;;;;;;6.12;79.59;100965.41;4992063;28;20046;-69
2022/09/10 00:13:46;;;;;;;0.20;0.20;;;;;;;6.07;79.80;100963.31;5010112;28;20042;-70
2022/09/10 00:16:14;;;;;;;0.10;0.10;;;;;;;5.85;79.94;100941.88;4990250;28;20104;-69
2022/09/10 00:18:41;;;;;;;0.43;0.20;;;;;;;5.98;80.04;100962.72;5008181;28;20053;-70
2022/09/10 00:21:11;;;;;;;0.25;0.20;;;;;;;5.95;80.76;100963.97;5007231;28;20104;-71
2022/09/10 00:23:37;;;;;;;0.52;0.20;;;;;;;5.96;80.69;100970.25;4994383;28;20057;-70
2022/09/10 00:26:10;;;;;;;1.60;0.40;;;;;;;6.02;80.95;100966.69;5030309;28;20157;-70
2022/09/10 00:28:36;;;;;;;0.17;0.17;;;;;;;6.04;81.15;100967.28;5019333;28;20050;-70
2022/09/10 00:31:03;;;;;;;1.00;0.30;;;;;;;6.05;81.29;100965.44;5005227;28;20096;-71
2022/09/10 00:33:29;;;;;;;0.10;0.10;;;;;;;5.99;81.44;100968.97;5008424;28;20574;-69
2022/09/10 00:35:56;;;;;;;0.20;0.20;;;;;;;5.85;81.48;100966.28;4990504;28;20046;-69
2022/09/10 00:38:24;;;;;;;0.30;0.30;;;;;;;5.86;82.17;100964.44;5007001;28;20054;-69
2022/09/10 00:40:50;;;;;;;0.30;0.30;;;;;;;5.87;82.41;100968.81;4989857;28;20045;-70
2022/09/10 00:43:19;;;;;;;0.25;0.20;;;;;;;5.86;82.73;100969.84;5004683;28;20057;-70
2022/09/10 00:45:49;;;;;;;0.25;0.20;;;;;;;5.86;82.91;100972.56;5005737;28;20052;-70
2022/09/10 00:48:20;;;;;;;0.30;0.30;;;;;;;5.80;83.17;100971.53;4989251;28;20061;-69
2022/09/10 00:50:50;;;;;;;0.95;0.35;;;;;;;5.83;83.60;100973.81;5006353;28;20042;-69
2022/09/10 00:53:22;;;;;;;0.63;0.30;;;;;;;5.87;83.66;100979.66;5009052;28;20054;-68
2022/09/10 00:55:53;;;;;;;0.20;0.20;;;;;;;5.87;84.02;100968.81;5008856;28;20045;-71
2022/09/10 00:58:22;;;;;;;0.57;0.30;;;;;;;5.70;84.37;100963.84;4971658;28;20133;-70
2022/09/10 01:00:53;;;;;;;0.32;0.30;;;;;;;5.85;84.64;100982.56;5007467;28;20049;-69
2022/09/10 01:03:20;;;;;;;0.15;0.15;;;;;;;5.76;84.51;100967.59;5006920;28;20533;-69
2022/09/10 01:05:48;;;;;;;0.20;0.20;;;;;;;5.73;84.73;100977.00;5004151;28;20490;-70
2022/09/10 01:08:16;;;;;;;0.10;0.10;;;;;;;5.68;84.92;100974.09;4989380;28;20048;-70
2022/09/10 01:10:57;;;;;;;0.40;0.40;;;;;;;5.65;84.87;100974.53;5009501;28;20045;-71
2022/09/10 01:13:44;;;;;;;0.20;0.20;;;;;;;5.62;84.80;100974.94;4954255;28;20434;-70
2022/09/10 01:16:18;;;;;;;0.75;0.40;;;;;;;5.59;85.03;100976.22;5004622;28;20440;-72
2022/09/10 01:18:56;;;;;;;0.65;0.20;;;;;;;5.57;85.23;100975.59;5005225;28;20065;-70
2022/09/10 01:21:29;;;;;;;0.40;0.28;;;;;;;5.58;85.55;100982.69;4989644;28;20069;-67
2022/09/10 01:24:28;;;;;;;0.30;0.30;;;;;;;5.59;85.69;100980.78;4973312;28;20046;-69
2022/09/10 01:27:29;;;;;;;0.50;0.38;;;;;;;5.52;85.77;100976.22;4987689;28;20061;-69
2022/09/10 01:30:02;;;;;;;0.10;0.10;;;;;;;5.53;85.73;100980.59;4987474;28;20054;-69
2022/09/10 01:32:36;;;;;;;0.90;0.45;;;;;;;5.49;85.79;100983.94;4985579;28;20120;-69
2022/09/10 01:35:12;;;;;;;0.25;0.25;;;;;;;5.48;86.14;100991.25;4971050;28;20046;-69
2022/09/10 01:37:41;;;;;;;0.20;0.20;;;;;;;5.49;86.26;100987.50;4971972;28;20053;-69
2022/09/10 01:40:09;;;;;;;0.75;0.30;;;;;;;5.43;86.06;100979.38;4970458;28;20050;-69
2022/09/10 01:42:38;;;;;;;0.38;0.30;;;;;;;5.46;86.26;100985.19;4986868;28;20065;-69
2022/09/10 01:45:06;;;;;;;0.38;0.20;;;;;;;5.44;86.46;100981.03;5004354;28;20414;-69
2022/09/10 01:47:58;;;;;;;0.20;0.20;;;;;;;5.45;86.52;100982.72;4988754;28;20089;-69
2022/09/10 01:50:33;;;;;;;0.22;0.22;;;;;;;5.47;86.51;100989.59;4971555;28;20046;-69
2022/09/10 01:53:22;;;;;;;0.88;0.20;;;;;;;5.48;86.26;100983.13;4986768;28;20065;-69
2022/09/10 01:55:55;;;;;;;0.52;0.32;;;;;;;5.49;86.38;100986.66;4961369;28;20042;-70
2022/09/10 01:58:28;;;;;;;0.55;0.32;;;;;;;5.49;86.41;100986.66;4987394;28;20054;-70
2022/09/10 02:01:15;;;;;;;0.55;0.30;;;;;;;5.47;86.51;100984.19;4988237;28;20525;-70
2022/09/10 02:03:45;;;;;;;0.77;0.30;;;;;;;5.50;86.76;100983.75;5003327;28;20046;-70
2022/09/10 02:06:16;;;;;;;0.10;0.10;;;;;;;5.53;87.04;100982.47;4971945;28;20141;-70
2022/09/10 02:08:45;;;;;;;0.63;0.35;;;;;;;5.51;87.09;100977.28;4987209;28;20044;-70
2022/09/10 02:11:13;;;;;;;0.22;0.22;;;;;;;5.52;87.02;100987.06;4988082;28;20451;-69
2022/09/10 02:13:45;;;;;;;0.30;0.30;;;;;;;5.55;87.11;100991.25;4989783;28;20058;-70
2022/09/10 02:16:39;;;;;;;1.45;0.30;;;;;;;5.54;87.08;100989.56;4972468;28;20049;-70
2022/09/10 02:19:06;;;;;;;0.20;0.20;;;;;;;5.55;87.47;100985.81;4989089;28;20121;-70
2022/09/10 02:21:32;;;;;;;;;;;;;;;5.54;87.48;100987.69;4986945;28;20072;-70
2022/09/10 02:24:05;;;;;;;1.35;0.30;;;;;;;5.47;87.42;100992.31;5006801;28;19925;-70
2022/09/10 02:26:32;;;;;;;0.90;0.40;;;;;;;5.39;87.48;100987.94;4989075;28;20053;-70
2022/09/10 02:29:00;;;;;;;0.65;0.38;;;;;;;5.36;87.71;100991.06;4971236;28;20049;-71
2022/09/10 02:31:27;;;;;;;0.30;0.30;;;;;;;5.38;87.85;100980.00;4990022;28;20041;-70
2022/09/10 02:33:54;;;;;;;0.10;0.10;;;;;;;5.39;88.15;100981.66;4989154;28;20049;-71
2022/09/10 02:36:24;;;;;;;0.20;0.20;;;;;;;5.30;88.05;100978.34;4986802;28;20052;-70
2022/09/10 02:38:51;;;;;;;0.20;0.20;;;;;;;5.25;87.93;100980.88;4970691;28;20058;-70
2022/09/10 02:41:17;;;;;;;0.30;0.20;;;;;;;5.22;88.24;100976.69;5005779;28;20517;-70
2022/09/10 02:43:45;;;;;;;0.30;0.20;;;;;;;5.15;88.25;100973.16;4988391;28;20061;-70
2022/09/10 02:46:12;;;;;;;0.77;0.17;;;;;;;5.10;88.35;100987.34;5006134;28;20512;-70
2022/09/10 02:48:38;;;;;;;0.47;0.17;;;;;;;5.12;88.48;100976.28;4977341;28;20071;-70
2022/09/10 02:51:06;;;;;;;;;;;;;;;5.12;88.68;100987.13;5011683;28;20111;-71
2022/09/10 02:53:34;;;;;;;0.20;0.20;;;;;;;5.12;88.67;100978.97;4991654;28;20388;-72
2022/09/10 02:56:04;;;;;;;0.43;0.20;;;;;;;5.13;88.45;100979.81;4976535;28;20046;-70
2022/09/10 02:58:30;;;;;;;0.10;0.10;;;;;;;5.16;88.31;100982.97;4991307;28;20050;-71
2022/09/10 03:01:05;;;;;;;0.20;0.20;;;;;;;5.19;88.45;100987.97;4977261;28;20048;-71
2022/09/10 03:03:33;;;;;;;1.48;0.50;;;;;;;5.21;88.32;100979.59;4993478;28;20531;-71
2022/09/10 03:05:58;;;;;;;;;;;;;;;5.22;87.92;100979.41;5012961;28;20077;-72
2022/09/10 03:08:25;;;;;;;1.02;0.40;;;;;;;5.21;87.76;100972.31;4962110;28;20393;-71
2022/09/10 03:10:52;;;;;;;0.20;0.20;;;;;;;5.27;87.64;100981.47;4994240;28;20445;-71
2022/09/10 03:13:18;;;;;;;0.15;0.15;;;;;;;5.33;87.31;100980.63;4992784;28;20505;-70
2022/09/10 03:15:44;;;;;;;0.30;0.30;;;;;;;5.35;86.98;100981.25;5006608;28;20042;-70
2022/09/10 03:18:12;;;;;;;0.20;0.20;;;;;;;5.38;86.51;100985.44;5007397;28;20050;-70
2022/09/10 03:20:40;;;;;;;0.98;0.30;;;;;;;5.42;86.37;100977.72;4991110;28;20076;-71
2022/09/10 03:23:08;;;;;;;0.40;0.20;;;;;;;5.43;86.27;100980.19;4990253;28;20053;-70
2022/09/10 03:25:34;;;;;;;0.20;0.20;;;;;;;5.45;86.00;100983.53;4989454;28;20459;-69
2022/09/10 03:28:03;;;;;;;0.73;0.20;;;;;;;5.49;86.02;100983.94;5007214;28;20073;-70
2022/09/10 03:30:31;;;;;;;0.20;0.20;;;;;;;5.54;85.85;100990.41;4975460;28;20049;-70
2022/09/10 03:32:58;;;;;;;0.20;0.20;;;;;;;5.60;85.87;100986.00;4989672;28;20038;-70
2022/09/10 03:35:24;;;;;;;0.35;0.25;;;;;;;5.50;85.58;100980.19;5008120;28;20220;-71
2022/09/10 03:37:52;;;;;;;0.20;0.20;;;;;;;5.64;85.70;100989.97;4990207;28;20136;-71
2022/09/10 03:40:18;;;;;;;;;;;;;;;5.53;85.75;100963.47;4972935;28;20066;-71
2022/09/10 03:42:44;;;;;;;0.35;0.25;;;;;;;5.71;85.84;100984.50;5005830;28;20360;-71
2022/09/10 03:45:12;;;;;;;0.40;0.30;;;;;;;5.76;85.30;100989.31;5009776;28;20070;-70
2022/09/10 03:47:39;;;;;;;0.75;0.30;;;;;;;5.80;85.07;100987.81;4990684;28;20136;-70
2022/09/10 03:50:06;;;;;;;0.33;0.30;;;;;;;5.86;84.61;100983.44;4989008;28;20137;-70
2022/09/10 03:52:32;;;;;;;0.20;0.20;;;;;;;5.84;84.81;100983.63;4989524;28;20432;-71
2022/09/10 03:54:59;;;;;;;0.25;0.20;;;;;;;5.92;84.46;100991.53;4990443;28;20141;-70
2022/09/10 03:57:27;;;;;;;0.20;0.20;;;;;;;5.94;84.45;100980.50;4972492;28;20448;-71
2022/09/10 03:59:53;;;;;;;0.20;0.20;;;;;;;6.00;84.33;100984.19;4973672;28;20073;-71
2022/09/10 04:02:19;;;;;;;0.40;0.20;;;;;;;6.13;84.13;100992.31;5006596;28;20503;-70
2022/09/10 04:04:46;;;;;;;0.30;0.30;;;;;;;6.18;83.90;100987.09;4973564;28;20488;-72
2022/09/10 04:07:13;;;;;;;0.30;0.30;;;;;;;6.26;83.78;100994.16;4974795;28;20341;-72
2022/09/10 04:09:40;;;;;;;0.60;0.30;;;;;;;6.34;83.26;100993.06;5007599;28;20053;-71
2022/09/10 04:12:08;;;;;;;0.68;0.28;;;;;;;6.37;82.96;100979.88;5008409;28;20049;-71
2022/09/10 04:14:34;;;;;;;0.20;0.20;;;;;;;6.37;82.56;100971.72;4993386;28;20046;-71
2022/09/10 04:17:02;;;;;;;0.30;0.30;;;;;;;6.55;82.35;100989.16;4990257;28;20050;-70
2022/09/10 04:19:29;;;;;;;0.43;0.30;;;;;;;6.61;81.66;100985.59;4956408;28;20046;-70
2022/09/10 04:21:56;;;;;;;0.30;0.30;;;;;;;6.70;80.58;100980.72;4990392;28;20328;-70
2022/09/10 04:24:23;;;;;;;0.20;0.20;;;;;;;6.80;79.75;100981.06;4974482;28;20041;-70
2022/09/10 04:26:49;;;;;;;0.20;0.20;;;;;;;6.86;78.31;100989.38;5007958;28;20050;-70
2022/09/10 04:29:18;;;;;;;0.22;0.20;;;;;;;6.94;77.48;100984.50;4974286;28;20136;-70
2022/09/10 04:31:45;;;;;;;0.80;0.30;;;;;;;6.99;76.61;100988.44;4972735;28;20115;-70
2022/09/10 04:34:13;;;;;;;0.10;0.10;;;;;;;7.02;76.03;100988.00;4642237;28;9999848;-69
2022/09/10 04:36:39;;;;;;;0.20;0.20;;;;;;;7.12;75.45;100996.50;4968495;28;20111;-71
2022/09/10 04:39:07;;;;;;;0.20;0.20;;;;;;;7.16;75.42;100986.81;4985724;28;20099;-71
2022/09/10 04:41:33;;;;;;;0.15;0.15;;;;;;;7.25;75.43;101000.97;5003259;28;20046;-70
2022/09/10 04:43:59;;;;;;;0.82;0.30;;;;;;;7.34;75.40;100999.66;4969921;28;20144;-70
2022/09/10 04:46:26;;;;;;;0.45;0.20;;;;;;;7.35;75.24;100987.69;4984963;28;20053;-71
2022/09/10 04:48:54;;;;;;;0.35;0.20;;;;;;;7.49;75.39;100993.88;4985078;28;20121;-71
2022/09/10 04:51:23;;;;;;;0.20;0.20;;;;;;;7.58;75.30;100986.22;4969662;28;20049;-71
2022/09/10 04:53:52;;;;;;;0.15;0.15;;;;;;;7.65;74.69;100994.34;4983915;28;20050;-70
2022/09/10 04:56:21;;;;;;;0.25;0.20;;;;;;;7.71;73.96;100984.41;4986093;28;20050;-70
2022/09/10 04:58:47;;;;;;;0.20;0.20;;;;;;;7.82;71.57;101001.91;4982686;28;20373;-70
2022/09/10 05:01:14;;;;;;;0.10;0.10;;;;;;;7.87;69.00;100991.16;4986072;28;20046;-70
2022/09/10 05:03:43;;;;;;;0.80;0.22;;;;;;;7.95;68.80;100997.13;4987291;28;20049;-71
2022/09/10 05:06:10;;;;;;;0.17;0.17;;;;;;;8.00;67.60;100996.44;4969494;28;20114;-71
2022/09/10 05:08:37;;;;;;;0.43;0.20;;;;;;;8.06;67.12;101000.16;4986852;28;20046;-71
2022/09/10 05:11:04;;;;;;;0.25;0.20;;;;;;;8.11;66.60;100997.56;4949795;28;20042;-70
2022/09/10 05:13:30;;;;;;;0.30;0.20;;;;;;;8.18;65.86;100997.47;4969816;28;20037;-69
2022/09/10 05:15:58;;;;;;;0.30;0.30;;;;;;;8.22;65.93;100993.22;4986282;28;20049;-70
2022/09/10 05:18:25;;;;;;;0.35;0.30;;;;;;;8.26;65.40;101002.59;4984612;28;20124;-70
2022/09/10 05:20:53;;;;;;;0.10;0.10;;;;;;;8.34;64.78;100996.00;4981930;28;20053;-71
2022/09/10 05:23:19;;;;;;;0.65;0.22;;;;;;;8.43;63.86;100993.78;4985157;28;20069;-71
2022/09/10 05:25:47;;;;;;;0.28;0.17;;;;;;;8.49;63.72;100998.31;4987696;28;20053;-71
2022/09/10 05:28:17;;;;;;;0.30;0.20;;;;;;;8.50;63.12;100991.84;4986127;28;20065;-71
2022/09/10 05:30:43;;;;;;;0.20;0.20;;;;;;;8.61;62.52;100996.50;4983941;28;20045;-71
2022/09/10 05:33:10;;;;;;;0.13;0.13;;;;;;;8.71;62.46;101003.25;4982999;28;20046;-71
2022/09/10 05:35:36;;;;;;;0.10;0.10;;;;;;;8.79;61.89;101001.03;4970611;28;20161;-71
2022/09/10 05:38:03;;;;;;;0.13;0.13;;;;;;;8.91;60.89;101005.69;4983514;28;20129;-71
2022/09/10 05:40:34;;;;;;;0.20;0.20;;;;;;;9.07;60.43;100998.72;4951891;28;20054;-71
2022/09/10 05:43:01;;;;;;;0.20;0.20;;;;;;;9.29;59.87;100995.41;4983231;28;20042;-72
2022/09/10 05:45:27;;;;;;;0.13;0.13;;;;;;;9.54;59.25;100997.91;4981982;28;20525;-71
2022/09/10 05:47:56;;;;;;;1.73;0.20;;;;;;;9.69;58.33;101000.16;4970532;28;20056;-71
2022/09/10 05:50:22;;;;;;;;;;;;;;;9.87;57.91;100990.97;5004788;28;20038;-71
2022/09/10 05:52:49;;;;;;;0.53;0.30;;;;;;;9.96;57.24;101005.06;5000738;28;19933;-71
2022/09/10 05:55:17;;;;;;;0.40;0.30;;;;;;;10.02;56.49;100993.19;5002918;28;20300;-71
2022/09/10 05:57:43;;;;;;;0.28;0.20;;;;;;;10.08;56.32;100994.13;4986324;28;20303;-71
2022/09/10 06:00:14;;;;;;;0.20;0.20;;;;;;;10.24;56.05;100994.44;4983230;28;20046;-72
2022/09/10 06:02:40;;;;;;;;;;;;;;;10.46;55.61;101002.81;4983788;28;20038;-71
2022/09/10 06:05:12;;;;;;;0.20;0.20;;;;;;;10.64;54.67;100986.19;4983785;28;20276;-71
2022/09/10 06:07:39;;;;;;;0.30;0.30;;;;;;;10.85;54.51;100991.16;4984019;28;20128;-71
2022/09/10 06:10:06;;;;;;;0.22;0.22;;;;;;;11.03;53.62;100990.13;4988221;28;20180;-71
2022/09/10 06:12:45;;;;;;;0.20;0.20;;;;;;;11.14;53.10;100989.22;5006162;28;20459;-69
2022/09/10 06:15:11;;;;;;;0.20;0.20;;;;;;;11.21;52.43;100976.16;4951553;28;20050;-69
2022/09/10 06:17:37;;;;;;;0.20;0.20;;;;;;;11.21;51.86;100991.78;4967753;28;20658;-71
2022/09/10 06:20:05;;;;;;;0.83;0.27;;;;;;;11.20;51.41;100985.47;4984816;28;20137;-70
2022/09/10 06:22:34;;;;;;;0.35;0.20;;;;;;;11.25;50.72;100981.97;4983580;28;20054;-71
2022/09/10 06:25:01;;;;;;;0.20;0.20;;;;;;;11.34;50.48;100985.97;4986751;28;20594;-71
2022/09/10 06:27:29;;;;;;;0.50;0.20;;;;;;;11.40;49.74;100975.91;4986333;28;20042;-71
2022/09/10 06:29:56;;;;;;;0.20;0.20;;;;;;;11.57;49.16;100986.00;4989137;28;20046;-70
2022/09/10 06:32:23;;;;;;;0.32;0.32;;;;;;;11.60;48.55;100991.78;5003213;28;20532;-71
2022/09/10 06:34:50;;;;;;;0.10;0.10;;;;;;;11.68;48.55;100989.72;4996408;28;20045;-71
2022/09/10 06:37:17;;;;;;;0.32;0.30;;;;;;;11.62;48.00;100977.84;4965369;28;20429;-71
2022/09/10 06:39:44;;;;;;;0.22;0.20;;;;;;;11.81;47.87;100994.81;4988238;28;20108;-70
2022/09/10 06:42:10;;;;;;;0.20;0.20;;;;;;;11.94;47.42;100984.53;5007159;28;20050;-69
2022/09/10 06:45:13;;;;;;;0.20;0.20;;;;;;;12.25;46.10;100988.50;4965136;28;20062;-70
2022/09/10 06:48:00;;;;;;;0.20;0.20;;;;;;;12.40;45.80;100989.78;4955041;28;20132;-70
2022/09/10 06:50:34;;;;;;;0.10;0.10;;;;;;;12.70;45.01;100991.97;4990335;28;20050;-70
2022/09/10 06:53:00;;;;;;;0.20;0.20;;;;;;;12.81;44.57;100986.59;4991582;28;20046;-70
2022/09/10 06:55:26;;;;;;;0.25;0.25;;;;;;;12.93;44.10;100989.16;4989880;28;20052;-70
2022/09/10 06:57:53;;;;;;;0.20;0.20;;;;;;;12.89;44.47;100988.88;4972693;28;20046;-70
2022/09/10 07:00:21;;;;;;;0.20;0.20;;;;;;;12.94;44.38;100985.31;4989853;28;20057;-71
2022/09/10 07:02:52;;;;;;;0.20;0.20;;;;;;;13.05;44.21;100979.69;4989295;28;20046;-72
2022/09/10 07:05:18;;;;;;;1.15;0.30;;;;;;;13.08;43.95;100978.31;4955945;28;20050;-71
2022/09/10 07:07:46;;;;;;;0.25;0.25;;;;;;;13.19;43.72;100974.56;4979534;28;20140;-71
2022/09/10 07:10:14;;;;;;;0.28;0.28;;;;;;;13.32;43.09;100973.25;5005071;28;20054;-71
2022/09/10 07:12:41;;;;;;;0.20;0.20;;;;;;;13.34;42.99;100978.50;4986100;28;20260;-70
2022/09/10 07:15:08;;;;;;;0.33;0.20;;;;;;;13.43;43.16;100978.81;4970266;28;20046;-70
2022/09/10 07:17:39;;;;;;;0.20;0.20;;;;;;;13.39;42.83;100978.50;4971658;28;20311;-70
2022/09/10 07:20:08;;;;;;;0.20;0.20;;;;;;;13.70;42.27;100980.66;4973398;28;20056;-71
2022/09/10 07:22:46;;;;;;;0.28;0.28;;;;;;;13.99;41.49;100981.06;4974365;28;20058;-70
2022/09/10 07:25:13;;;;;;;;;;;;;;;14.27;40.86;100975.34;4971337;28;20045;-70
2022/09/10 07:27:52;;;;;;;0.20;0.20;;;;;;;14.37;39.49;100971.84;4985839;28;19929;-71
2022/09/10 07:30:20;;;;;;;0.30;0.30;;;;;;;14.38;39.55;100976.22;4987042;28;20121;-71
2022/09/10 07:32:49;;;;;;;0.20;0.20;;;;;;;14.48;39.16;100976.22;4992013;28;20038;-69
2022/09/10 07:35:20;;;;;;;0.20;0.20;;;;;;;14.30;39.45;100961.91;4989111;28;20584;-70
2022/09/10 07:37:46;;;;;;;0.55;0.20;;;;;;;14.39;39.41;100977.88;4987172;28;20050;-70
2022/09/10 07:40:14;;;;;;;0.20;0.20;;;;;;;14.66;39.08;100974.06;4971475;28;20038;-70
2022/09/10 07:42:42;;;;;;;0.32;0.30;;;;;;;14.99;38.26;100981.00;4987028;28;20057;-70
2022/09/10 07:45:15;;;;;;;0.30;0.30;;;;;;;15.30;37.27;100967.19;4973657;28;20061;-70
2022/09/10 07:47:43;;;;;;;0.40;0.40;;;;;;;15.54;37.43;100963.00;4990026;28;20541;-70
2022/09/10 07:50:11;;;;;;;1.10;0.73;;;;;;;15.91;36.37;100970.06;4973891;28;20046;-70
2022/09/10 07:52:37;;;;;;;;;;;;;;;16.30;36.12;100969.31;4993291;28;20049;-70
2022/09/10 07:55:04;;;;;;;0.30;0.30;;;;;;;16.78;34.88;100967.03;4991603;28;19948;-70
2022/09/10 07:57:32;;;;;;;1.08;0.40;;;;;;;17.17;34.20;100966.19;4988646;28;20049;-70
2022/09/10 07:59:59;;;;;;;0.30;0.30;;;;;;;17.49;33.21;100961.19;4972955;28;20052;-70
2022/09/10 08:02:28;;;;;;;0.30;0.30;;;;;;;17.37;33.27;100969.88;4975443;28;20069;-70
2022/09/10 08:05:03;;;;;;;0.30;0.30;;;;;;;17.29;33.16;100940.94;4988728;28;20532;-70
2022/09/10 08:07:31;;;;;;;0.30;0.30;;;;;;;17.56;32.72;100958.88;4992286;28;20060;-70
2022/09/10 08:09:57;;;;;;;0.30;0.30;;;;;;;17.81;32.46;100954.19;4990300;28;20583;-70
2022/09/10 08:12:24;;;;;;;0.30;0.30;;;;;;;17.93;31.97;100957.31;5009202;28;20141;-72
2022/09/10 08:14:51;;;;;;;0.30;0.30;;;;;;;18.02;32.00;100951.13;4989722;28;20302;-70
2022/09/10 08:17:18;;;;;;;0.30;0.30;;;;;;;18.28;31.58;100946.09;4990825;28;20465;-70
2022/09/10 08:19:45;;;;;;;0.30;0.30;;;;;;;18.35;31.65;100949.31;4989763;28;20065;-70
2022/09/10 08:22:12;;;;;;;0.30;0.30;;;;;;;18.73;30.22;100936.56;4972730;28;20286;-69
2022/09/10 08:24:43;;;;;;;0.30;0.30;;;;;;;18.78;30.75;100944.75;4990460;28;20136;-70
2022/09/10 08:27:10;;;;;;;;;;;;;;;19.01;29.78;100945.78;4989967;28;20119;-69
2022/09/10 08:29:36;;;;;;;0.40;0.40;;;;;;;19.59;29.27;100929.72;5005762;28;19925;-70
2022/09/10 08:32:03;;;;;;;0.35;0.35;;;;;;;20.03;28.71;100923.84;4989472;28;20049;-70
2022/09/10 08:34:31;;;;;;;0.43;0.40;;;;;;;20.37;27.95;100934.47;4988149;28;20061;-72
2022/09/10 08:37:07;;;;;;;0.50;0.50;;;;;;;20.33;27.26;100929.84;5007214;28;20050;-71
2022/09/10 08:39:34;;;;;;;0.50;0.50;;;;;;;20.21;27.93;100933.16;4989134;28;20147;-71
2022/09/10 08:42:08;;;;;;;0.47;0.47;;;;;;;20.59;27.46;100930.03;5006431;28;20458;-72
2022/09/10 08:44:47;;;;;;;0.50;0.50;;;;;;;20.69;27.10;100924.25;4972448;28;20060;-71
2022/09/10 08:47:21;;;;;;;0.40;0.40;;;;;;;20.67;27.34;100934.03;4973474;28;20037;-71
2022/09/10 08:49:53;;;;;;;0.50;0.50;;;;;;;20.91;26.75;100921.75;5004318;28;20054;-72
2022/09/10 08:52:27;;;;;;;0.50;0.50;;;;;;;21.49;25.88;100914.38;4971496;28;20050;-72
2022/09/10 08:55:00;;;;;;;0.50;0.50;;;;;;;21.41;25.95;100922.69;4988836;28;20045;-72
2022/09/10 08:57:36;;;;;;;0.50;0.50;;;;;;;21.26;26.27;100924.75;5008112;28;20425;-71
2022/09/10 09:00:06;;;;;;;0.50;0.50;;;;;;;21.24;26.09;100915.91;4982378;28;20041;-72
2022/09/10 09:02:48;;;;;;;0.50;0.50;;;;;;;21.09;26.56;100906.00;4975717;28;20054;-72
2022/09/10 09:05:18;;;;;;;0.52;0.52;;;;;;;21.36;26.35;100910.53;4988342;28;20049;-72
2022/09/10 09:07:47;;;;;;;0.50;0.50;;;;;;;21.33;25.70;100908.41;4988553;28;20050;-71
2022/09/10 09:10:25;;;;;;;0.60;0.60;;;;;;;21.06;26.32;100909.44;4969510;28;20052;-72
2022/09/10 09:13:31;;;;;;;0.63;0.60;;;;;;;20.90;26.27;100907.06;4987670;28;20042;-71
2022/09/10 09:16:12;;;;;;;0.60;0.60;;;;;;;21.69;25.71;100903.81;4950346;28;20107;-71
2022/09/10 09:19:02;;;;;;;0.60;0.60;;;;;;;22.40;24.68;100896.31;4988879;28;20046;-70
2022/09/10 09:21:38;;;;;;;0.70;0.70;;;;;;;22.61;24.23;100895.66;4990835;28;20137;-72
2022/09/10 09:24:10;;;;;;;0.70;0.70;;;;;;;22.53;24.38;100886.16;5006691;28;20050;-71
2022/09/10 09:26:38;;;;;;;0.70;0.70;;;;;;;22.85;24.33;100903.47;4988460;28;20046;-71
2022/09/10 09:29:13;;;;;;;0.70;0.70;;;;;;;23.73;23.32;100897.56;4989659;28;20058;-72
2022/09/10 09:31:45;;;;;;;0.70;0.70;;;;;;;23.77;22.64;100892.13;5006818;28;20214;-72
2022/09/10 09:34:20;;;;;;;0.80;0.80;;;;;;;23.35;23.10;100896.44;5006349;28;20081;-70
2022/09/10 09:36:50;;;;;;;0.80;0.80;;;;;;;23.12;23.68;100897.84;4988411;28;20050;-71
2022/09/10 09:39:22;;;;;;;0.80;0.80;;;;;;;23.14;23.31;100896.34;4987349;28;20049;-70
2022/09/10 09:41:56;;;;;;;1.00;0.80;;;;;;;23.50;23.10;100883.91;5004758;28;20041;-70
2022/09/10 09:44:35;;;;;;;0.90;0.90;;;;;;;23.81;22.77;100878.31;4986894;28;20068;-72
2022/09/10 09:47:02;;;;;;;0.90;0.90;;;;;;;24.31;22.02;100885.00;4971931;28;20120;-70
2022/09/10 09:49:28;;;;;;;0.80;0.80;;;;;;;24.54;21.94;100879.84;5008165;28;20049;-72
2022/09/10 09:51:57;;;;;;;;;;;;;;;24.69;21.64;100878.38;4986847;28;20054;-71
2022/09/10 09:54:27;;;;;;;0.90;0.90;;;;;;;25.06;21.02;100872.88;5004147;28;20023;-72
2022/09/10 09:56:57;;;;;;;0.90;0.90;;;;;;;25.23;20.84;100876.63;5004614;28;20062;-72
2022/09/10 09:59:27;;;;;;;1.00;1.00;;;;;;;25.79;20.39;100877.19;5007838;28;20157;-72
2022/09/10 10:01:58;;;;;;;1.00;1.00;;;;;;;26.38;19.45;100867.34;5008392;28;20575;-73
2022/09/10 10:04:26;;;;;;;1.00;1.00;;;;;;;26.36;19.14;100869.66;5008664;28;20058;-73
2022/09/10 10:06:56;;;;;;;1.00;1.00;;;;;;;26.24;19.04;100866.94;4989584;28;20058;-72
2022/09/10 10:09:26;;;;;;;1.00;1.00;;;;;;;26.55;18.69;100852.19;5007388;28;20139;-70
2022/09/10 10:11:54;;;;;;;1.00;1.00;;;;;;;27.11;18.20;100861.66;5008009;28;20049;-72
2022/09/10 10:14:40;;;;;;;1.10;1.10;;;;;;;27.23;18.25;100863.56;5007020;28;20125;-71
2022/09/10 10:17:28;;;;;;;1.10;1.10;;;;;;;27.41;17.72;100858.38;4989740;28;20084;-70
2022/09/10 10:19:59;;;;;;;1.10;1.10;;;;;;;27.68;17.78;100852.19;5006052;28;20524;-71
2022/09/10 10:22:28;;;;;;;1.10;1.10;;;;;;;28.03;17.17;100857.75;5005288;28;20054;-71
2022/09/10 10:24:55;;;;;;;1.10;1.10;;;;;;;27.91;17.56;100846.66;4988056;28;20419;-71
2022/09/10 10:27:31;;;;;;;1.10;1.10;;;;;;;28.24;17.26;100847.34;5005128;28;20061;-71
2022/09/10 10:30:21;;;;;;;1.20;1.20;;;;;;;28.56;17.16;100836.72;5005175;28;20136;-71
2022/09/10 10:32:52;;;;;;;1.23;1.20;;;;;;;28.64;16.84;100843.28;5007549;28;20131;-71
2022/09/10 10:35:33;;;;;;;1.10;1.10;;;;;;;28.41;16.97;100841.28;5006064;28;20477;-72
2022/09/10 10:38:19;;;;;;;1.13;1.10;;;;;;;27.98;17.27;100848.81;5004281;28;20165;-71
2022/09/10 10:40:55;;;;;;;1.25;1.20;;;;;;;27.17;18.08;100842.56;5006588;28;20041;-72
2022/09/10 10:43:41;;;;;;;1.30;1.20;;;;;;;27.14;18.14;100832.88;4624451;28;10000705;-71
2022/09/10 10:46:11;;;;;;;;;;;;;;;27.29;17.85;100841.63;4989498;28;20263;-72
2022/09/10 10:48:51;;;;;;;1.30;1.20;;;;;;;27.37;18.36;100837.00;5001190;28;19949;-71
2022/09/10 10:51:25;;;;;;;1.30;1.20;;;;;;;27.80;18.11;100831.56;5002447;28;20058;-72
2022/09/10 10:54:05;;;;;;;1.40;1.30;;;;;;;28.11;17.89;100818.53;5002456;28;20143;-71
2022/09/10 10:56:36;;;;;;;1.40;1.30;;;;;;;28.21;17.19;100811.53;4984938;28;20046;-72
2022/09/10 10:59:16;;;;;;;1.40;1.30;;;;;;;29.11;17.01;100801.91;5002945;28;20414;-72
2022/09/10 11:01:49;;;;;;;1.30;1.20;;;;;;;28.82;16.76;100800.59;5000020;28;20309;-72
2022/09/10 11:04:28;;;;;;;1.30;1.20;;;;;;;28.47;17.03;100799.56;4985161;28;20049;-71
2022/09/10 11:07:01;;;;;;;1.40;1.30;;;;;;;28.50;16.60;100790.41;5001007;28;20561;-71
2022/09/10 11:09:32;;;;;;;1.30;1.20;;;;;;;28.50;16.63;100786.78;5006397;28;20065;-72
2022/09/10 11:12:04;;;;;;;1.40;1.30;;;;;;;28.56;17.00;100790.88;5007325;28;20034;-72
2022/09/10 11:14:37;;;;;;;1.40;1.30;;;;;;;29.01;16.58;100786.44;4989330;28;20061;-73
2022/09/10 11:17:11;;;;;;;1.40;1.30;;;;;;;29.65;15.64;100781.31;5007151;28;20057;-72
2022/09/10 11:19:41;;;;;;;1.40;1.30;;;;;;;30.04;15.65;100781.03;4989136;28;20089;-72
2022/09/10 11:22:14;;;;;;;1.40;1.30;;;;;;;29.83;15.83;100779.56;5004328;28;20054;-73
2022/09/10 11:24:46;;;;;;;1.40;1.30;;;;;;;29.84;15.56;100775.56;4987695;28;20473;-72
2022/09/10 11:27:15;;;;;;;1.40;1.30;;;;;;;29.74;15.68;100781.03;4971960;28;20058;-72
2022/09/10 11:29:47;;;;;;;1.50;1.40;;;;;;;29.81;15.55;100775.50;5008555;28;20056;-72
2022/09/10 11:32:24;;;;;;;1.50;1.40;;;;;;;30.21;15.36;100773.16;4991302;28;20078;-72
2022/09/10 11:34:57;;;;;;;1.40;1.30;;;;;;;30.56;15.20;100769.88;5006193;28;20065;-72
2022/09/10 11:37:33;;;;;;;1.50;1.40;;;;;;;30.59;15.32;100761.81;5007512;28;20054;-70
2022/09/10 11:40:04;;;;;;;1.40;1.30;;;;;;;30.65;15.00;100763.09;5007989;28;20047;-73
2022/09/10 11:42:38;;;;;;;1.40;1.30;;;;;;;30.83;15.07;100757.59;5009398;28;20054;-73
2022/09/10 11:45:18;;;;;;;1.50;1.40;;;;;;;31.24;14.71;100743.41;5008096;28;20061;-72
2022/09/10 11:47:51;;;;;;;1.50;1.40;;;;;;;31.43;14.56;100749.13;4991201;28;20075;-71